Berea, Iowa
Current Conditions -  °F | °C
As of 11:15 AM on Sunday 23 Nov 2014 (Local Time) from KAIO Reporting Station
Overcast Overcast  
Wind Chill: 54°   Ceiling: 600
Heat Index: 54°   Visibility: 9mi
Dew Point: 54°   Wind: 8mph
Humidity: 100%   Direction: 210°SSW
Pressure: 29.43"   Gusts: NA
Location:  41.4595°N, 94.8127°W
Report Text: KAIO 231715Z AUTO 21007KT 9SM BKN006 BKN011 OVC019 12/12 A2943 RMK AO2
Loading
Personal Weather Stations






























Interactive Weather Map New forecast layout! Learn more

10-Day Weather Forecast

Advertisements
Track Severe Weather on mobile